createdAt,value
2022-11-12T00:04:25.781Z,71.80
2022-11-12T00:09:47.878Z,72.10
2022-11-12T00:15:11.394Z,72.00
2022-11-12T00:20:34.079Z,72.20
2022-11-12T00:26:01.291Z,72.00
2022-11-12T00:31:23.382Z,71.90
2022-11-12T00:36:45.725Z,71.70
2022-11-12T00:42:07.833Z,72.20
2022-11-12T00:47:29.932Z,71.80
2022-11-12T00:52:53.622Z,71.80
2022-11-12T00:58:15.687Z,71.90
2022-11-12T01:03:39.360Z,71.80
2022-11-12T01:09:01.636Z,72.20
2022-11-12T01:14:23.790Z,72.00
2022-11-12T01:19:45.986Z,71.70
2022-11-12T01:25:08.335Z,72.00
2022-11-12T01:30:30.518Z,71.60
2022-11-12T01:35:52.647Z,71.80
2022-11-12T01:41:19.385Z,72.00
2022-11-12T01:52:03.015Z,72.00
2022-11-12T01:57:34.768Z,72.40
2022-11-12T02:03:00.736Z,72.00
2022-11-12T02:08:24.587Z,72.00
2022-11-12T02:14:05.295Z,72.00
2022-11-12T02:19:27.574Z,72.20
2022-11-12T02:24:49.691Z,72.20
2022-11-12T02:30:12.432Z,72.50
2022-11-12T02:35:34.838Z,72.10
2022-11-12T02:40:56.946Z,72.20
2022-11-12T02:46:19.280Z,72.20
2022-11-12T02:51:41.484Z,72.80
2022-11-12T02:57:03.851Z,72.80
2022-11-12T03:02:25.973Z,72.70
2022-11-12T03:07:48.159Z,72.70
2022-11-12T03:13:10.322Z,72.50
2022-11-12T03:18:32.445Z,72.50
2022-11-12T03:23:54.541Z,72.80
2022-11-12T03:29:16.808Z,72.40
2022-11-12T03:34:38.905Z,72.40
2022-11-12T03:40:01.009Z,72.70
2022-11-12T03:45:25.931Z,72.40
2022-11-12T03:50:48.083Z,72.50
2022-11-12T03:56:10.223Z,73.20
2022-11-12T04:01:33.278Z,72.80
2022-11-12T04:07:15.383Z,72.40
2022-11-12T04:12:57.495Z,72.30
2022-11-12T04:18:39.505Z,72.80
2022-11-12T04:24:01.602Z,73.20
2022-11-12T04:29:43.821Z,72.30
2022-11-12T04:35:08.672Z,72.60
2022-11-12T04:40:51.430Z,72.60
2022-11-12T04:46:13.634Z,72.60
2022-11-12T04:51:55.669Z,72.60
2022-11-12T04:57:17.834Z,72.80
2022-11-12T05:02:40.073Z,72.40
2022-11-12T05:08:03.258Z,73.00
2022-11-12T05:13:25.411Z,73.10
2022-11-12T05:18:47.518Z,73.50
2022-11-12T05:24:22.507Z,73.30
2022-11-12T05:29:51.897Z,73.70
2022-11-12T05:35:14.183Z,73.40
2022-11-12T05:40:36.267Z,73.70
2022-11-12T05:45:58.409Z,74.00
2022-11-12T05:51:20.503Z,73.60
2022-11-12T05:56:42.627Z,74.10
2022-11-12T06:02:04.805Z,73.70
2022-11-12T06:07:26.994Z,74.20
2022-11-12T06:12:49.205Z,73.50
2022-11-12T06:18:11.557Z,73.50
2022-11-12T06:23:34.147Z,74.00
2022-11-12T06:28:56.535Z,73.90
2022-11-12T06:34:18.653Z,74.10
2022-11-12T06:39:40.786Z,74.40
2022-11-12T06:45:03.112Z,73.90
2022-11-12T06:50:25.417Z,74.20
2022-11-12T06:55:47.558Z,74.30
2022-11-12T07:01:13.927Z,74.30
2022-11-12T07:06:37.288Z,73.80
2022-11-12T07:11:59.438Z,73.90
2022-11-12T07:17:21.547Z,74.10
2022-11-12T07:22:43.795Z,74.30
2022-11-12T07:28:06.050Z,74.40
2022-11-12T07:33:29.609Z,74.30
2022-11-12T07:38:55.375Z,74.70
2022-11-12T07:44:17.486Z,74.80
2022-11-12T07:49:40.182Z,74.70
2022-11-12T07:55:02.574Z,75.00
2022-11-12T08:00:24.862Z,75.10
2022-11-12T08:05:47.141Z,75.70
2022-11-12T08:11:09.333Z,75.20
2022-11-12T08:16:31.586Z,75.30
2022-11-12T08:21:53.702Z,75.30
2022-11-12T08:27:15.783Z,75.30
2022-11-12T08:32:38.100Z,74.20
2022-11-12T08:38:02.144Z,74.90
2022-11-12T08:43:24.449Z,75.00
2022-11-12T08:48:46.874Z,74.50
2022-11-12T08:54:09.109Z,74.80
2022-11-12T08:59:31.198Z,75.20
2022-11-12T09:04:53.293Z,74.90
2022-11-12T09:10:15.679Z,76.20
2022-11-12T09:15:38.963Z,76.40
2022-11-12T09:21:03.932Z,75.20
2022-11-12T09:26:26.023Z,75.70
2022-11-12T09:31:48.157Z,73.30
2022-11-12T09:37:10.315Z,72.80
2022-11-12T09:42:36.438Z,72.20
2022-11-12T09:48:03.307Z,73.80
2022-11-12T09:53:37.087Z,71.80
2022-11-12T09:59:01.251Z,72.60
2022-11-12T10:16:03.539Z,73.70
2022-11-12T10:32:16.693Z,74.80
2022-11-12T10:37:57.283Z,73.80
2022-11-12T10:48:34.533Z,73.70
2022-11-12T10:53:58.575Z,73.40
2022-11-12T10:59:25.733Z,71.50
2022-11-12T11:04:48.902Z,71.90
2022-11-12T11:15:34.613Z,72.20
2022-11-12T11:42:47.824Z,70.60
2022-11-12T11:53:43.295Z,70.10
2022-11-12T12:04:44.989Z,70.70
2022-11-12T12:21:12.045Z,69.90
2022-11-12T12:26:48.581Z,70.30
2022-11-12T12:32:21.715Z,69.20
2022-11-12T12:37:52.951Z,68.70
2022-11-12T12:43:24.802Z,69.50
2022-11-12T12:48:48.607Z,69.70
2022-11-12T12:59:47.999Z,69.30
2022-11-12T13:15:49.268Z,68.60
2022-11-12T13:21:21.030Z,69.60
2022-11-12T13:32:36.118Z,69.90
2022-11-12T13:38:17.660Z,69.60
2022-11-12T13:43:43.174Z,69.60
2022-11-12T13:49:10.377Z,70.30
2022-11-12T13:59:42.160Z,69.40
2022-11-12T14:05:14.702Z,69.70
2022-11-12T14:21:06.888Z,70.10
2022-11-12T14:26:44.910Z,69.60
2022-11-12T14:32:09.837Z,69.70
2022-11-12T14:37:42.636Z,69.70
2022-11-12T14:43:06.244Z,69.60
2022-11-12T14:48:29.566Z,69.80
2022-11-12T14:53:58.722Z,69.90
2022-11-12T14:59:21.178Z,69.80
2022-11-12T15:04:51.167Z,69.80
2022-11-12T15:26:24.050Z,70.60
2022-11-12T15:31:50.498Z,70.10
2022-11-12T15:42:39.793Z,70.20
2022-11-12T15:48:01.958Z,70.50
2022-11-12T15:53:24.224Z,70.50
2022-11-12T15:58:46.555Z,70.20
2022-11-12T16:04:09.475Z,70.70
2022-11-12T16:09:31.569Z,70.60
2022-11-12T16:14:53.765Z,70.60
2022-11-12T16:20:21.410Z,70.30
2022-11-12T16:25:44.329Z,70.10
2022-11-12T16:31:06.888Z,70.30
2022-11-12T16:36:29.296Z,70.30
2022-11-12T16:41:51.408Z,70.30
2022-11-12T16:47:13.681Z,70.30
2022-11-12T16:52:35.807Z,70.00
2022-11-12T16:57:57.906Z,70.10
2022-11-12T17:03:20.046Z,70.40
2022-11-12T17:08:42.438Z,70.20
2022-11-12T17:14:06.188Z,70.20
2022-11-12T17:19:28.373Z,69.90
2022-11-12T17:24:50.656Z,70.30
2022-11-12T17:30:13.237Z,70.40
2022-11-12T17:35:35.965Z,70.60
2022-11-12T17:40:59.158Z,70.70
2022-11-12T17:46:21.322Z,70.70
2022-11-12T17:51:43.445Z,70.60
2022-11-12T17:57:05.567Z,70.70
2022-11-12T18:02:27.842Z,70.60
2022-11-12T18:07:50.267Z,70.50
2022-11-12T18:13:12.388Z,70.60
2022-11-12T18:18:34.598Z,70.60
2022-11-12T18:23:56.747Z,70.70
2022-11-12T18:29:18.904Z,70.50
2022-11-12T18:34:45.219Z,70.90
2022-11-12T18:40:08.005Z,70.60
2022-11-12T18:45:30.252Z,70.60
2022-11-12T18:50:52.732Z,70.70
2022-11-12T18:56:17.991Z,70.80
2022-11-12T19:01:40.455Z,70.90
2022-11-12T19:07:02.908Z,71.00
2022-11-12T19:12:25.476Z,71.10
2022-11-12T19:17:47.713Z,71.10
2022-11-12T19:23:10.068Z,70.90
2022-11-12T19:28:32.915Z,70.80
2022-11-12T19:33:55.307Z,70.90
2022-11-12T19:39:17.499Z,70.40
2022-11-12T19:44:40.063Z,70.60
2022-11-12T19:50:02.418Z,70.20
2022-11-12T19:55:25.818Z,70.50
2022-11-12T20:00:47.995Z,70.80
2022-11-12T20:06:14.593Z,70.60
2022-11-12T20:11:37.010Z,71.00
2022-11-12T20:16:59.136Z,71.00
2022-11-12T20:22:21.394Z,71.10
2022-11-12T20:27:43.543Z,71.00
2022-11-12T20:33:05.884Z,71.00
2022-11-12T20:38:28.846Z,70.50
2022-11-12T20:43:54.061Z,70.90
2022-11-12T20:49:16.329Z,71.10
2022-11-12T20:54:38.517Z,71.10
2022-11-12T21:00:00.674Z,71.00
2022-11-12T21:05:22.973Z,70.90
2022-11-12T21:10:49.357Z,70.70
2022-11-12T21:16:12.813Z,70.90
2022-11-12T21:21:35.060Z,70.80
2022-11-12T21:27:05.237Z,70.70
2022-11-12T21:32:27.449Z,70.70
2022-11-12T21:37:49.760Z,70.80
2022-11-12T21:43:11.917Z,70.90
2022-11-12T21:48:34.632Z,70.90
2022-11-12T21:53:58.746Z,70.70
2022-11-12T21:59:20.839Z,70.80
2022-11-12T22:04:48.416Z,70.60
2022-11-12T22:10:10.601Z,70.60
2022-11-12T22:15:32.671Z,70.60
2022-11-12T22:20:59.496Z,70.50
2022-11-12T22:26:25.325Z,70.60
2022-11-12T22:31:47.470Z,70.50
2022-11-12T22:37:09.890Z,70.60
2022-11-12T22:42:32.030Z,70.50
2022-11-12T22:47:54.330Z,70.70
2022-11-12T22:53:16.439Z,70.80
2022-11-12T22:58:40.477Z,71.10
2022-11-12T23:04:05.931Z,71.00
2022-11-12T23:09:28.067Z,70.90
2022-11-12T23:14:51.340Z,71.10
2022-11-12T23:20:13.560Z,71.20
2022-11-12T23:25:36.011Z,71.10
2022-11-12T23:30:58.495Z,71.10
2022-11-12T23:36:21.697Z,71.10
2022-11-12T23:41:43.862Z,71.70
2022-11-12T23:47:06.143Z,71.20
2022-11-12T23:52:28.313Z,71.10
2022-11-12T23:57:53.183Z,71.20
